Time,TemperatureF,DewpointF,PressureIn,WindDirection,WindDirectionDegrees,WindSpeedMPH,WindSpeedGustMPH,Humidity,HourlyPrecipIn,Conditions,Clouds,dailyrainin,SoftwareType,DateUTC
2013-01-11 00:00:00,44.1,39.9,30.03,ESE,119,11.0,12.0,85,0.00,,---,0.15,VWS V14.01,2013-01-11 05:00:00,
2013-01-11 00:03:00,44.1,39.9,30.03,ESE,117,9.0,12.0,85,0.00,,---,0.00,VWS V14.01,2013-01-11 05:03:00,
2013-01-11 00:08:00,44.2,40.0,30.03,SE,125,10.0,12.0,85,0.00,,---,0.00,VWS V14.01,2013-01-11 05:08:00,
2013-01-11 00:13:00,44.5,40.3,30.03,ESE,121,9.0,12.0,85,0.00,,---,0.00,VWS V14.01,2013-01-11 05:13:00,
2013-01-11 00:18:00,44.5,40.3,30.04,ESE,121,11.0,12.0,85,0.00,,---,0.00,VWS V14.01,2013-01-11 05:18:00,
2013-01-11 00:23:00,44.8,40.6,30.03,SE,128,9.0,12.0,85,0.00,,---,0.00,VWS V14.01,2013-01-11 05:23:00,
2013-01-11 00:28:00,45.2,40.7,30.03,SE,129,9.0,13.0,84,0.00,,---,0.00,VWS V14.01,2013-01-11 05:28:00,
2013-01-11 00:30:00,45.2,40.7,30.03,SE,128,10.0,13.0,84,0.00,,---,0.00,VWS V14.01,2013-01-11 05:30:00,
2013-01-11 00:33:00,45.4,40.9,30.03,SE,128,9.0,13.0,84,0.00,,---,0.00,VWS V14.01,2013-01-11 05:33:00,
2013-01-11 00:38:00,45.5,41.0,30.02,SE,130,11.0,13.0,84,0.00,,---,0.00,VWS V14.01,2013-01-11 05:38:00,
2013-01-11 00:43:00,45.8,41.2,30.02,SE,124,8.0,13.0,84,0.00,,---,0.00,VWS V14.01,2013-01-11 05:43:00,
2013-01-11 00:48:00,45.8,40.9,30.03,SE,132,9.0,13.0,83,0.00,,---,0.00,VWS V14.01,2013-01-11 05:48:00,
2013-01-11 00:53:00,46.0,41.1,30.02,SE,132,9.0,13.0,83,0.00,,---,0.00,VWS V14.01,2013-01-11 05:53:00,
2013-01-11 00:58:00,46.0,41.1,30.02,SE,140,9.0,13.0,83,0.00,,---,0.00,VWS V14.01,2013-01-11 05:58:00,
2013-01-11 01:00:00,46.1,41.2,30.02,SE,133,9.0,13.0,83,0.00,,---,0.00,VWS V14.01,2013-01-11 06:00:00,
2013-01-11 01:03:00,46.1,41.2,30.02,SE,132,9.0,11.0,83,0.00,,---,0.00,VWS V14.01,2013-01-11 06:03:00,
2013-01-11 01:08:00,46.2,41.3,30.01,SE,142,8.0,11.0,83,0.00,,---,0.00,VWS V14.01,2013-01-11 06:08:00,
2013-01-11 01:13:00,46.2,41.3,30.01,SE,128,8.0,11.0,83,0.00,,---,0.00,VWS V14.01,2013-01-11 06:13:00,
2013-01-11 01:18:00,46.2,41.3,30.01,ESE,123,10.0,11.0,83,0.00,,---,0.00,VWS V14.01,2013-01-11 06:18:00,
2013-01-11 01:23:00,46.2,41.3,30.00,ESE,123,10.0,12.0,83,0.00,,---,0.00,VWS V14.01,2013-01-11 06:23:00,
2013-01-11 01:28:00,46.2,41.3,29.99,ESE,118,11.0,12.0,83,0.00,,---,0.00,VWS V14.01,2013-01-11 06:28:00,
2013-01-11 01:30:00,46.2,41.3,29.99,ESE,119,10.0,12.0,83,0.00,,---,0.00,VWS V14.01,2013-01-11 06:30:00,
2013-01-11 01:33:00,46.2,41.3,29.99,SE,134,8.0,12.0,83,0.00,,---,0.00,VWS V14.01,2013-01-11 06:33:00,
2013-01-11 01:38:00,46.2,41.6,29.99,SE,132,11.0,13.0,84,0.00,,---,0.00,VWS V14.01,2013-01-11 06:38:00,
2013-01-11 01:43:00,46.4,41.8,29.98,SE,127,9.0,13.0,84,0.00,,---,0.00,VWS V14.01,2013-01-11 06:43:00,
2013-01-11 01:48:00,46.4,41.8,29.97,SE,124,11.0,13.0,84,0.00,,---,0.00,VWS V14.01,2013-01-11 06:48:00,
2013-01-11 01:54:00,46.5,41.9,29.97,ESE,118,12.0,14.0,84,0.00,,---,0.00,VWS V14.01,2013-01-11 06:54:00,
2013-01-11 01:59:00,46.5,42.2,29.97,SE,128,10.0,14.0,85,0.00,,---,0.00,VWS V14.01,2013-01-11 06:59:00,
2013-01-11 02:00:00,46.7,42.4,29.97,ESE,122,12.0,14.0,85,0.00,,---,0.00,VWS V14.01,2013-01-11 07:00:00,
2013-01-11 02:04:00,46.8,42.5,29.96,ESE,115,10.0,14.0,85,0.00,,---,0.00,VWS V14.01,2013-01-11 07:04:00,
2013-01-11 02:09:00,47.0,42.7,29.96,ESE,121,13.0,14.0,85,0.00,,---,0.00,VWS V14.01,2013-01-11 07:09:00,
2013-01-11 02:14:00,47.1,42.8,29.96,SE,135,14.0,14.0,85,0.00,,---,0.00,VWS V14.01,2013-01-11 07:14:00,
2013-01-11 02:19:00,47.4,43.1,29.96,SE,130,12.0,15.0,85,0.00,,---,0.00,VWS V14.01,2013-01-11 07:19:00,
2013-01-11 02:24:00,47.7,43.4,29.95,ESE,123,14.0,15.0,85,0.00,,---,0.00,VWS V14.01,2013-01-11 07:24:00,
2013-01-11 02:29:00,47.9,43.6,29.95,SE,135,10.0,15.0,85,0.00,,---,0.00,VWS V14.01,2013-01-11 07:29:00,
2013-01-11 02:30:00,47.9,43.6,29.95,SE,134,13.0,15.0,85,0.00,,---,0.00,VWS V14.01,2013-01-11 07:30:00,
2013-01-11 02:34:00,48.0,43.7,29.95,SE,124,9.0,15.0,85,0.01,,---,0.01,VWS V14.01,2013-01-11 07:34:00,
2013-01-11 02:39:00,48.3,44.0,29.95,SE,132,12.0,18.0,85,0.01,,---,0.01,VWS V14.01,2013-01-11 07:39:00,
2013-01-11 02:44:00,48.6,44.3,29.94,ESE,121,13.0,18.0,85,0.01,,---,0.01,VWS V14.01,2013-01-11 07:44:00,
2013-01-11 02:49:00,48.8,44.5,29.94,SE,140,13.0,18.0,85,0.01,,---,0.01,VWS V14.01,2013-01-11 07:49:00,
2013-01-11 02:54:00,49.1,44.8,29.94,SE,132,11.0,18.0,85,0.01,,---,0.01,VWS V14.01,2013-01-11 07:54:00,
2013-01-11 02:59:00,49.1,44.8,29.93,SE,128,13.0,18.0,85,0.01,,---,0.01,VWS V14.01,2013-01-11 07:59:00,
2013-01-11 03:00:00,49.2,44.9,29.93,SE,135,12.0,18.0,85,0.01,,---,0.01,VWS V14.01,2013-01-11 08:00:00,
2013-01-11 03:04:00,49.4,45.1,29.93,SE,131,12.0,15.0,85,0.01,,---,0.01,VWS V14.01,2013-01-11 08:04:00,
2013-01-11 03:09:00,49.6,45.3,29.93,SE,126,11.0,17.0,85,0.01,,---,0.01,VWS V14.01,2013-01-11 08:09:00,
2013-01-11 03:14:00,49.9,45.6,29.93,SE,141,15.0,18.0,85,0.02,,---,0.02,VWS V14.01,2013-01-11 08:14:00,
2013-01-11 03:19:00,50.4,46.4,29.92,SE,140,14.0,19.0,86,0.03,,---,0.03,VWS V14.01,2013-01-11 08:19:00,
2013-01-11 03:24:00,50.5,46.5,29.92,SE,138,18.0,19.0,86,0.05,,---,0.05,VWS V14.01,2013-01-11 08:24:00,
2013-01-11 03:29:00,50.7,47.0,29.91,ESE,117,15.0,19.0,87,0.07,,---,0.07,VWS V14.01,2013-01-11 08:29:00,
2013-01-11 03:30:00,50.8,47.1,29.91,SE,135,14.0,20.0,87,0.07,,---,0.07,VWS V14.01,2013-01-11 08:30:00,
2013-01-11 03:34:00,50.8,47.4,29.90,SE,131,12.0,19.0,88,0.09,,---,0.09,VWS V14.01,2013-01-11 08:34:00,
2013-01-11 03:39:00,51.1,48.0,29.90,SE,140,19.0,20.0,89,0.10,,---,0.10,VWS V14.01,2013-01-11 08:39:00,
2013-01-11 03:44:00,51.1,48.0,29.89,SE,126,14.0,23.0,89,0.10,,---,0.10,VWS V14.01,2013-01-11 08:44:00,
2013-01-11 03:49:00,51.4,48.6,29.90,SE,138,15.0,23.0,90,0.10,,---,0.10,VWS V14.01,2013-01-11 08:49:00,
2013-01-11 03:54:00,51.6,48.8,29.89,SE,144,14.0,23.0,90,0.10,,---,0.10,VWS V14.01,2013-01-11 08:54:00,
2013-01-11 03:59:00,51.6,49.1,29.89,SE,144,14.0,23.0,91,0.10,,---,0.10,VWS V14.01,2013-01-11 08:59:00,
2013-01-11 04:00:00,51.6,49.1,29.89,SE,135,15.0,23.0,91,0.10,,---,0.10,VWS V14.01,2013-01-11 09:00:00,
2013-01-11 04:04:00,51.6,49.1,29.89,SSE,153,14.0,18.0,91,0.09,,---,0.10,VWS V14.01,2013-01-11 09:04:00,
2013-01-11 04:09:00,51.7,49.2,29.88,SE,130,14.0,19.0,91,0.09,,---,0.10,VWS V14.01,2013-01-11 09:09:00,
2013-01-11 04:14:00,51.9,49.4,29.88,SE,143,15.0,19.0,91,0.09,,---,0.10,VWS V14.01,2013-01-11 09:14:00,
2013-01-11 04:19:00,51.9,49.4,29.88,SE,138,10.0,19.0,91,0.09,,---,0.10,VWS V14.01,2013-01-11 09:19:00,
2013-01-11 04:24:00,52.2,49.7,29.88,SSE,165,3.0,19.0,91,0.09,,---,0.10,VWS V14.01,2013-01-11 09:24:00,
2013-01-11 04:29:00,52.3,49.5,29.89,South,175,3.0,19.0,90,0.11,,---,0.12,VWS V14.01,2013-01-11 09:29:00,
2013-01-11 04:30:00,52.3,49.5,29.89,SE,135,11.0,19.0,90,0.12,,---,0.13,VWS V14.01,2013-01-11 09:30:00,
2013-01-11 04:34:00,52.2,49.4,29.88,SSE,150,9.0,12.0,90,0.06,,---,0.13,VWS V14.01,2013-01-11 09:34:00,
2013-01-11 04:39:00,52.2,49.4,29.89,SSE,161,8.0,16.0,90,0.07,,---,0.14,VWS V14.01,2013-01-11 09:39:00,
2013-01-11 04:44:00,52.6,49.8,29.90,SW,216,8.0,16.0,90,0.10,,---,0.17,VWS V14.01,2013-01-11 09:44:00,
2013-01-11 04:49:00,52.3,49.5,29.90,SSW,196,5.0,16.0,90,0.13,,---,0.20,VWS V14.01,2013-01-11 09:49:00,
2013-01-11 04:54:00,52.6,50.0,29.90,SSW,213,8.0,16.0,91,0.17,,---,0.24,VWS V14.01,2013-01-11 09:54:00,
2013-01-11 04:59:00,52.2,49.4,29.91,SW,215,8.0,16.0,90,0.22,,---,0.29,VWS V14.01,2013-01-11 09:59:00,
2013-01-11 05:00:00,52.5,50.2,29.90,SW,225,8.0,16.0,92,0.22,,---,0.29,VWS V14.01,2013-01-11 10:00:00,
2013-01-11 05:04:00,53.1,50.8,29.90,SSW,195,12.0,17.0,92,0.21,,---,0.31,VWS V14.01,2013-01-11 10:04:00,
2013-01-11 05:09:00,53.1,50.8,29.90,SW,219,10.0,17.0,92,0.22,,---,0.33,VWS V14.01,2013-01-11 10:09:00,
2013-01-11 05:14:00,52.8,50.5,29.90,SW,217,6.0,17.0,92,0.24,,---,0.34,VWS V14.01,2013-01-11 10:14:00,
2013-01-11 05:19:00,53.1,50.8,29.84,SE,144,8.0,17.0,92,0.26,,---,0.36,VWS V14.01,2013-01-11 10:19:00,
2013-01-11 05:24:00,52.9,50.6,29.89,SW,221,7.0,17.0,92,0.26,,---,0.36,VWS V14.01,2013-01-11 10:24:00,
2013-01-11 05:29:00,52.8,50.5,29.89,SW,232,3.0,17.0,92,0.26,,---,0.36,VWS V14.01,2013-01-11 10:29:00,
2013-01-11 05:30:00,52.8,50.5,29.88,SW,225,6.0,17.0,92,0.26,,---,0.36,VWS V14.01,2013-01-11 10:30:00,
2013-01-11 05:34:00,52.6,50.3,29.88,SW,230,3.0,5.0,92,0.23,,---,0.36,VWS V14.01,2013-01-11 10:34:00,
2013-01-11 05:39:00,52.8,50.8,29.87,SW,229,2.0,5.0,93,0.23,,---,0.36,VWS V14.01,2013-01-11 10:39:00,
2013-01-11 05:44:00,52.8,50.8,29.88,SSW,207,2.0,5.0,93,0.23,,---,0.36,VWS V14.01,2013-01-11 10:44:00,
2013-01-11 05:49:00,52.8,50.8,29.91,WSW,253,7.0,9.0,93,0.24,,---,0.37,VWS V14.01,2013-01-11 10:49:00,
2013-01-11 05:54:00,52.6,50.6,29.91,SW,224,7.0,14.0,93,0.31,,---,0.44,VWS V14.01,2013-01-11 10:54:00,
2013-01-11 05:59:00,52.8,50.8,29.88,SW,232,0.0,14.0,93,0.34,,---,0.47,VWS V14.01,2013-01-11 10:59:00,
2013-01-11 06:00:00,52.8,50.8,29.88,SW,225,4.0,14.0,93,0.34,,---,0.47,VWS V14.01,2013-01-11 11:00:00,
2013-01-11 06:04:00,52.8,51.1,29.89,SW,227,4.0,4.0,94,0.18,,---,0.47,VWS V14.01,2013-01-11 11:04:00,
2013-01-11 06:10:00,53.1,51.4,29.89,SW,219,5.0,7.0,94,0.19,,---,0.48,VWS V14.01,2013-01-11 11:10:00,
2013-01-11 06:15:00,53.2,51.5,29.89,SW,218,3.0,8.0,94,0.20,,---,0.49,VWS V14.01,2013-01-11 11:15:00,
2013-01-11 06:20:00,53.2,51.5,29.88,South,171,1.0,8.0,94,0.21,,---,0.50,VWS V14.01,2013-01-11 11:20:00,
2013-01-11 06:25:00,52.9,51.2,29.88,SE,138,8.0,9.0,94,0.24,,---,0.53,VWS V14.01,2013-01-11 11:25:00,
2013-01-11 06:30:00,52.5,50.8,29.87,SE,133,7.0,9.0,94,0.24,,---,0.53,VWS V14.01,2013-01-11 11:30:00,
2013-01-11 06:35:00,52.5,50.8,29.85,ESE,122,8.0,9.0,94,0.18,,---,0.54,VWS V14.01,2013-01-11 11:35:00,
2013-01-11 06:40:00,52.8,51.4,29.85,ESE,114,9.0,10.0,95,0.18,,---,0.54,VWS V14.01,2013-01-11 11:40:00,
2013-01-11 06:45:00,52.9,51.5,29.84,ESE,122,11.0,11.0,95,0.18,,---,0.54,VWS V14.01,2013-01-11 11:45:00,
2013-01-11 06:50:00,52.8,51.4,29.85,SE,133,6.0,11.0,95,0.18,,---,0.54,VWS V14.01,2013-01-11 11:50:00,
2013-01-11 06:55:00,52.6,51.2,29.85,SE,136,8.0,11.0,95,0.18,,---,0.54,VWS V14.01,2013-01-11 11:55:00,
2013-01-11 07:00:00,52.6,51.2,29.85,SE,132,5.0,11.0,95,0.18,,---,0.54,VWS V14.01,2013-01-11 12:00:00,
2013-01-11 07:05:00,52.9,51.5,29.85,SE,142,7.0,9.0,95,0.07,,---,0.54,VWS V14.01,2013-01-11 12:05:00,
2013-01-11 07:10:00,52.9,51.5,29.85,SSE,156,5.0,10.0,95,0.07,,---,0.54,VWS V14.01,2013-01-11 12:10:00,
2013-01-11 07:15:00,52.8,51.4,29.85,SSE,162,4.0,10.0,95,0.07,,---,0.54,VWS V14.01,2013-01-11 12:15:00,
2013-01-11 07:20:00,52.9,51.8,29.86,SSE,161,3.0,10.0,96,0.07,,---,0.54,VWS V14.01,2013-01-11 12:20:00,
2013-01-11 07:25:00,52.9,51.8,29.86,SSE,161,7.0,10.0,96,0.07,,---,0.54,VWS V14.01,2013-01-11 12:25:00,
2013-01-11 07:30:00,52.9,51.8,29.87,SSE,165,1.0,10.0,96,0.07,,---,0.54,VWS V14.01,2013-01-11 12:30:00,
2013-01-11 07:35:00,52.6,51.5,29.87,South,188,3.0,6.0,96,0.01,,---,0.54,VWS V14.01,2013-01-11 12:35:00,
2013-01-11 07:40:00,52.2,50.8,29.87,SSW,212,4.0,7.0,95,0.01,,---,0.54,VWS V14.01,2013-01-11 12:40:00,
2013-01-11 07:45:00,52.2,51.1,29.87,SSW,202,6.0,7.0,96,0.01,,---,0.54,VWS V14.01,2013-01-11 12:45:00,
2013-01-11 07:50:00,52.0,50.9,29.88,SW,217,6.0,7.0,96,0.01,,---,0.54,VWS V14.01,2013-01-11 12:50:00,
2013-01-11 07:55:00,51.6,50.5,29.88,SSW,211,6.0,7.0,96,0.01,,---,0.54,VWS V14.01,2013-01-11 12:55:00,
2013-01-11 08:00:00,51.6,50.5,29.88,SSW,212,5.0,7.0,96,0.01,,---,0.54,VWS V14.01,2013-01-11 13:00:00,
2013-01-11 08:05:00,51.9,50.8,29.88,SSW,213,7.0,7.0,96,0.00,,---,0.54,VWS V14.01,2013-01-11 13:05:00,
2013-01-11 08:10:00,52.0,50.9,29.88,South,182,4.0,11.0,96,0.00,,---,0.54,VWS V14.01,2013-01-11 13:10:00,
2013-01-11 08:15:00,52.2,51.1,29.88,SSW,207,6.0,11.0,96,0.00,,---,0.54,VWS V14.01,2013-01-11 13:15:00,
2013-01-11 08:20:00,52.3,51.2,29.88,SSW,193,6.0,11.0,96,0.00,,---,0.54,VWS V14.01,2013-01-11 13:20:00,
2013-01-11 08:25:00,52.5,51.4,29.88,SW,219,5.0,11.0,96,0.00,,---,0.54,VWS V14.01,2013-01-11 13:25:00,
2013-01-11 08:30:00,52.5,51.4,29.89,South,176,4.0,11.0,96,0.00,,---,0.54,VWS V14.01,2013-01-11 13:30:00,
2013-01-11 08:35:00,52.8,52.0,29.89,SSW,207,6.0,10.0,97,0.00,,---,0.54,VWS V14.01,2013-01-11 13:35:00,
2013-01-11 08:40:00,52.5,51.7,29.88,SSW,200,6.0,12.0,97,0.00,,---,0.54,VWS V14.01,2013-01-11 13:40:00,
2013-01-11 08:45:00,52.3,51.5,29.89,SSW,212,6.0,12.0,97,0.00,,---,0.54,VWS V14.01,2013-01-11 13:45:00,
2013-01-11 08:50:00,52.0,51.2,29.89,SW,217,6.0,12.0,97,0.00,,---,0.54,VWS V14.01,2013-01-11 13:50:00,
2013-01-11 08:55:00,51.9,51.1,29.90,SSW,204,6.0,12.0,97,0.00,,---,0.54,VWS V14.01,2013-01-11 13:55:00,
2013-01-11 09:00:00,52.0,51.2,29.90,SSW,209,5.0,12.0,97,0.00,,---,0.54,VWS V14.01,2013-01-11 14:00:00,
2013-01-11 09:05:00,52.3,51.5,29.90,SW,222,6.0,9.0,97,0.00,,---,0.54,VWS V14.01,2013-01-11 14:05:00,
2013-01-11 09:10:00,52.5,51.7,29.90,SW,220,8.0,11.0,97,0.00,,---,0.54,VWS V14.01,2013-01-11 14:10:00,
2013-01-11 09:15:00,52.5,52.0,29.90,South,187,7.0,13.0,98,0.00,,---,0.54,VWS V14.01,2013-01-11 14:15:00,
2013-01-11 09:20:00,52.9,52.3,29.90,South,185,10.0,14.0,98,0.00,,---,0.54,VWS V14.01,2013-01-11 14:20:00,
2013-01-11 09:25:00,53.2,52.9,29.90,SSW,213,10.0,14.0,99,0.00,,---,0.54,VWS V14.01,2013-01-11 14:25:00,
2013-01-11 09:30:00,53.1,52.8,29.90,SW,225,8.0,14.0,99,0.00,,---,0.54,VWS V14.01,2013-01-11 14:30:00,
2013-01-11 09:35:00,53.1,52.8,29.90,SW,216,6.0,10.0,99,0.00,,---,0.54,VWS V14.01,2013-01-11 14:35:00,
2013-01-11 09:40:00,53.6,53.3,29.90,SW,216,7.0,10.0,99,0.00,,---,0.54,VWS V14.01,2013-01-11 14:40:00,
2013-01-11 09:45:00,53.8,53.5,29.90,SW,217,6.0,10.0,99,0.00,,---,0.54,VWS V14.01,2013-01-11 14:45:00,
2013-01-11 09:50:00,53.5,53.2,29.90,SW,214,6.0,10.0,99,0.00,,---,0.54,VWS V14.01,2013-01-11 14:50:00,
2013-01-11 09:55:00,53.2,52.9,29.90,SW,218,5.0,11.0,99,0.00,,---,0.54,VWS V14.01,2013-01-11 14:55:00,
2013-01-11 10:00:00,53.1,52.8,29.90,SSW,211,5.0,11.0,99,0.00,,---,0.54,VWS V14.01,2013-01-11 15:00:00,
2013-01-11 10:05:00,53.1,52.8,29.90,SW,218,5.0,7.0,99,0.00,,---,0.54,VWS V14.01,2013-01-11 15:05:00,
2013-01-11 10:10:00,52.9,52.6,29.90,SW,217,4.0,7.0,99,0.00,,---,0.54,VWS V14.01,2013-01-11 15:10:00,
2013-01-11 10:15:00,52.9,52.6,29.91,SSW,204,5.0,7.0,99,0.00,,---,0.54,VWS V14.01,2013-01-11 15:15:00,
2013-01-11 10:20:00,52.8,52.5,29.91,SW,215,5.0,7.0,99,0.00,,---,0.54,VWS V14.01,2013-01-11 15:20:00,
2013-01-11 10:25:00,52.9,52.6,29.91,SW,217,6.0,7.0,99,0.00,,---,0.54,VWS V14.01,2013-01-11 15:25:00,
2013-01-11 10:30:00,53.2,52.9,29.91,SW,225,5.0,9.0,99,0.00,,---,0.54,VWS V14.01,2013-01-11 15:30:00,
2013-01-11 10:31:00,53.1,52.8,29.91,SSW,213,5.0,9.0,99,0.00,,---,0.54,VWS V14.01,2013-01-11 15:31:00,
2013-01-11 10:36:00,53.3,53.0,29.90,SSW,213,5.0,8.0,99,0.00,,---,0.54,VWS V14.01,2013-01-11 15:36:00,
2013-01-11 10:41:00,53.9,53.6,29.91,SSW,212,8.0,12.0,99,0.00,,---,0.54,VWS V14.01,2013-01-11 15:41:00,
2013-01-11 10:46:00,54.1,53.8,29.91,SW,215,8.0,12.0,99,0.00,,---,0.54,VWS V14.01,2013-01-11 15:46:00,
2013-01-11 10:51:00,54.2,53.1,29.90,SSW,213,7.0,12.0,96,0.00,,---,0.54,VWS V14.01,2013-01-11 15:51:00,
2013-01-11 10:56:00,53.9,53.6,29.90,SW,214,8.0,18.0,99,0.00,,---,0.54,VWS V14.01,2013-01-11 15:56:00,
2013-01-11 11:00:00,54.2,53.9,29.90,SW,225,8.0,18.0,99,0.00,,---,0.54,VWS V14.01,2013-01-11 16:00:00,
2013-01-11 11:01:00,54.2,53.9,29.90,SW,219,8.0,11.0,99,0.00,,---,0.54,VWS V14.01,2013-01-11 16:01:00,
2013-01-11 11:06:00,54.5,54.2,29.90,SW,219,8.0,14.0,99,0.00,,---,0.54,VWS V14.01,2013-01-11 16:06:00,
2013-01-11 11:11:00,54.5,54.2,29.90,SW,229,14.0,14.0,99,0.00,,---,0.54,VWS V14.01,2013-01-11 16:11:00,
2013-01-11 11:16:00,54.5,54.2,29.91,SW,230,12.0,14.0,99,0.00,,---,0.54,VWS V14.01,2013-01-11 16:16:00,
2013-01-11 11:21:00,54.8,54.2,29.91,SW,233,11.0,16.0,98,0.00,,---,0.54,VWS V14.01,2013-01-11 16:21:00,
2013-01-11 11:26:00,54.8,53.7,29.90,SW,219,8.0,17.0,96,0.00,,---,0.54,VWS V14.01,2013-01-11 16:26:00,
2013-01-11 11:30:00,55.1,53.1,29.90,SW,225,10.0,18.0,93,0.00,,---,0.54,VWS V14.01,2013-01-11 16:30:00,
2013-01-11 11:31:00,55.1,52.8,29.90,SSW,212,7.0,7.0,92,0.00,,---,0.54,VWS V14.01,2013-01-11 16:31:00,
2013-01-11 11:36:00,55.1,51.9,29.90,SW,223,8.0,15.0,89,0.00,,---,0.54,VWS V14.01,2013-01-11 16:36:00,
2013-01-11 11:41:00,55.1,51.0,29.90,SW,228,15.0,16.0,86,0.00,,---,0.54,VWS V14.01,2013-01-11 16:41:00,
2013-01-11 11:46:00,55.3,50.6,29.90,SW,226,11.0,19.0,84,0.00,,---,0.54,VWS V14.01,2013-01-11 16:46:00,
2013-01-11 11:51:00,55.3,50.2,29.90,SW,215,9.0,19.0,83,0.00,,---,0.54,VWS V14.01,2013-01-11 16:51:00,
2013-01-11 11:56:00,55.3,49.9,29.90,SW,218,10.0,21.0,82,0.00,,---,0.54,VWS V14.01,2013-01-11 16:56:00,
2013-01-11 12:00:00,55.6,49.9,29.90,SW,225,11.0,21.0,81,0.00,,---,0.54,VWS V14.01,2013-01-11 17:00:00,
2013-01-11 12:01:00,55.6,49.9,29.90,WSW,243,10.0,10.0,81,0.00,,---,0.54,VWS V14.01,2013-01-11 17:01:00,
2013-01-11 12:06:00,55.6,50.2,29.90,SW,232,10.0,15.0,82,0.00,,---,0.54,VWS V14.01,2013-01-11 17:06:00,
2013-01-11 12:11:00,55.4,50.0,29.89,SSW,212,7.0,15.0,82,0.00,,---,0.54,VWS V14.01,2013-01-11 17:11:00,
2013-01-11 12:16:00,55.4,49.7,29.89,WSW,241,17.0,21.0,81,0.00,,---,0.54,VWS V14.01,2013-01-11 17:16:00,
2013-01-11 12:21:00,55.7,48.3,29.89,SW,223,10.0,22.0,76,0.00,,---,0.54,VWS V14.01,2013-01-11 17:21:00,
2013-01-11 12:26:00,55.7,47.9,29.89,SW,228,12.0,25.0,75,0.00,,---,0.54,VWS V14.01,2013-01-11 17:26:00,
2013-01-11 12:30:00,55.9,48.1,29.89,SW,225,11.0,26.0,75,0.00,,---,0.54,VWS V14.01,2013-01-11 17:30:00,
2013-01-11 12:31:00,55.9,48.1,29.89,WSW,239,13.0,15.0,75,0.00,,---,0.54,VWS V14.01,2013-01-11 17:31:00,
2013-01-11 12:36:00,56.0,47.8,29.89,WSW,244,14.0,17.0,74,0.00,,---,0.54,VWS V14.01,2013-01-11 17:36:00,
2013-01-11 12:41:00,56.3,47.0,29.89,SW,217,17.0,20.0,71,0.00,,---,0.54,VWS V14.01,2013-01-11 17:41:00,
2013-01-11 12:46:00,56.6,47.3,29.88,West,259,8.0,20.0,71,0.00,,---,0.54,VWS V14.01,2013-01-11 17:46:00,
2013-01-11 12:51:00,57.2,47.1,29.88,SW,234,9.0,20.0,69,0.00,,---,0.54,VWS V14.01,2013-01-11 17:51:00,
2013-01-11 12:56:00,57.8,47.3,29.88,WSW,246,14.0,20.0,68,0.00,,---,0.54,VWS V14.01,2013-01-11 17:56:00,
2013-01-11 13:00:00,58.0,47.9,29.88,WSW,248,12.0,21.0,69,0.00,,---,0.54,VWS V14.01,2013-01-11 18:00:00,
2013-01-11 13:01:00,58.0,47.9,29.88,SW,233,9.0,13.0,69,0.00,,---,0.54,VWS V14.01,2013-01-11 18:01:00,
2013-01-11 13:06:00,57.8,47.3,29.88,SW,220,11.0,17.0,68,0.00,,---,0.54,VWS V14.01,2013-01-11 18:06:00,
2013-01-11 13:11:00,57.6,46.3,29.88,WSW,242,13.0,18.0,66,0.00,,---,0.54,VWS V14.01,2013-01-11 18:11:00,
2013-01-11 13:16:00,58.1,46.0,29.88,SW,221,16.0,20.0,64,0.00,,---,0.54,VWS V14.01,2013-01-11 18:16:00,
2013-01-11 13:21:00,58.1,44.7,29.88,WSW,241,16.0,25.0,61,0.00,,---,0.54,VWS V14.01,2013-01-11 18:21:00,
2013-01-11 13:26:00,58.0,44.6,29.88,WSW,249,15.0,25.0,61,0.00,,---,0.54,VWS V14.01,2013-01-11 18:26:00,
2013-01-11 13:30:00,57.6,44.3,29.88,WSW,248,14.0,26.0,61,0.00,,---,0.54,VWS V14.01,2013-01-11 18:30:00,
2013-01-11 13:31:00,57.6,44.7,29.88,West,269,15.0,19.0,62,0.00,,---,0.54,VWS V14.01,2013-01-11 18:31:00,
2013-01-11 13:36:00,58.1,45.6,29.88,SW,230,20.0,24.0,63,0.00,,---,0.54,VWS V14.01,2013-01-11 18:36:00,
2013-01-11 13:41:00,58.0,45.9,29.88,SW,229,17.0,24.0,64,0.00,,---,0.54,VWS V14.01,2013-01-11 18:41:00,
2013-01-11 13:46:00,58.1,46.4,29.88,SW,224,9.0,24.0,65,0.00,,---,0.54,VWS V14.01,2013-01-11 18:46:00,
2013-01-11 13:51:00,58.3,46.6,29.88,SW,220,9.0,24.0,65,0.00,,---,0.54,VWS V14.01,2013-01-11 18:51:00,
2013-01-11 13:56:00,58.3,46.2,29.88,SW,225,8.0,24.0,64,0.00,,---,0.54,VWS V14.01,2013-01-11 18:56:00,
2013-01-11 14:00:00,58.1,46.0,29.88,SW,225,12.0,25.0,64,0.00,,---,0.54,VWS V14.01,2013-01-11 19:00:00,
2013-01-11 14:01:00,58.0,45.9,29.88,SSW,213,18.0,18.0,64,0.00,,---,0.54,VWS V14.01,2013-01-11 19:01:00,
2013-01-11 14:06:00,57.8,45.3,29.88,SW,227,16.0,20.0,63,0.00,,---,0.54,VWS V14.01,2013-01-11 19:06:00,
2013-01-11 14:11:00,58.0,45.5,29.87,SW,227,15.0,20.0,63,0.00,,---,0.54,VWS V14.01,2013-01-11 19:11:00,
2013-01-11 14:16:00,58.4,45.0,29.88,SW,219,12.0,20.0,61,0.00,,---,0.54,VWS V14.01,2013-01-11 19:16:00,
2013-01-11 14:21:00,58.3,45.3,29.87,SW,217,19.0,22.0,62,0.00,,---,0.54,VWS V14.01,2013-01-11 19:21:00,
2013-01-11 14:26:00,57.6,44.7,29.88,SW,219,10.0,22.0,62,0.00,,---,0.54,VWS V14.01,2013-01-11 19:26:00,
2013-01-11 14:30:00,57.3,44.8,29.88,SW,225,13.0,23.0,63,0.00,,---,0.54,VWS V14.01,2013-01-11 19:30:00,
2013-01-11 14:32:00,57.3,44.4,29.88,SW,233,19.0,19.0,62,0.00,,---,0.54,VWS V14.01,2013-01-11 19:32:00,
2013-01-11 14:36:00,57.6,44.7,29.88,WSW,254,12.0,19.0,62,0.00,,---,0.54,VWS V14.01,2013-01-11 19:36:00,
2013-01-11 14:41:00,58.0,44.6,29.88,SW,230,15.0,19.0,61,0.00,,---,0.54,VWS V14.01,2013-01-11 19:41:00,
2013-01-11 14:46:00,57.8,44.9,29.88,SW,224,7.0,19.0,62,0.00,,---,0.54,VWS V14.01,2013-01-11 19:46:00,
2013-01-11 14:52:00,58.0,45.1,29.88,SW,232,9.0,19.0,62,0.00,,---,0.54,VWS V14.01,2013-01-11 19:52:00,
2013-01-11 14:57:00,57.5,44.6,29.87,SW,227,8.0,19.0,62,0.00,,---,0.54,VWS V14.01,2013-01-11 19:57:00,
2013-01-11 15:00:00,57.2,45.2,29.88,SW,225,12.0,22.0,64,0.00,,---,0.54,VWS V14.01,2013-01-11 20:00:00,
2013-01-11 15:02:00,57.0,45.4,29.87,SW,221,10.0,15.0,65,0.00,,---,0.54,VWS V14.01,2013-01-11 20:02:00,
2013-01-11 15:07:00,57.0,45.4,29.88,SW,225,12.0,16.0,65,0.00,,---,0.54,VWS V14.01,2013-01-11 20:07:00,
2013-01-11 15:12:00,57.3,45.7,29.88,SW,218,6.0,18.0,65,0.00,,---,0.54,VWS V14.01,2013-01-11 20:12:00,
2013-01-11 15:17:00,57.2,45.6,29.88,SSW,211,8.0,18.0,65,0.00,,---,0.54,VWS V14.01,2013-01-11 20:17:00,
2013-01-11 15:22:00,57.0,45.8,29.88,SW,220,10.0,18.0,66,0.00,,---,0.54,VWS V14.01,2013-01-11 20:22:00,
2013-01-11 15:27:00,58.0,45.9,29.88,SSW,211,8.0,18.0,64,0.00,,---,0.54,VWS V14.01,2013-01-11 20:27:00,
2013-01-11 15:30:00,58.3,46.2,29.88,SW,225,10.0,18.0,64,0.00,,---,0.54,VWS V14.01,2013-01-11 20:30:00,
2013-01-11 15:32:00,58.4,46.3,29.89,SW,220,11.0,11.0,64,0.00,,---,0.54,VWS V14.01,2013-01-11 20:32:00,
2013-01-11 15:37:00,58.3,45.8,29.89,SW,216,6.0,12.0,63,0.00,,---,0.54,VWS V14.01,2013-01-11 20:37:00,
2013-01-11 15:42:00,58.4,45.9,29.89,SSW,212,8.0,12.0,63,0.00,,---,0.54,VWS V14.01,2013-01-11 20:42:00,
2013-01-11 15:47:00,58.7,46.2,29.89,SW,232,7.0,13.0,63,0.00,,---,0.54,VWS V14.01,2013-01-11 20:47:00,
2013-01-11 15:52:00,58.6,46.5,29.88,SSW,198,7.0,13.0,64,0.00,,---,0.54,VWS V14.01,2013-01-11 20:52:00,
2013-01-11 15:57:00,58.7,46.6,29.89,SSW,204,7.0,13.0,64,0.00,,---,0.54,VWS V14.01,2013-01-11 20:57:00,
2013-01-11 16:00:00,58.7,46.6,29.89,SW,225,7.0,14.0,64,0.00,,---,0.54,VWS V14.01,2013-01-11 21:00:00,
2013-01-11 16:02:00,58.6,46.5,29.89,SSW,205,7.0,8.0,64,0.00,,---,0.54,VWS V14.01,2013-01-11 21:02:00,
2013-01-11 16:07:00,58.1,46.8,29.89,SSW,209,9.0,10.0,66,0.00,,---,0.54,VWS V14.01,2013-01-11 21:07:00,
2013-01-11 16:12:00,57.8,46.5,29.89,SSW,211,7.0,12.0,66,0.00,,---,0.54,VWS V14.01,2013-01-11 21:12:00,
2013-01-11 16:17:00,57.6,45.9,29.89,SW,217,8.0,16.0,65,0.00,,---,0.54,VWS V14.01,2013-01-11 21:17:00,
2013-01-11 16:22:00,57.3,46.5,29.88,SSW,213,8.0,16.0,67,0.00,,---,0.54,VWS V14.01,2013-01-11 21:22:00,
2013-01-11 16:27:00,57.2,46.4,29.88,SSW,192,8.0,16.0,67,0.00,,---,0.54,VWS V14.01,2013-01-11 21:27:00,
2013-01-11 16:30:00,57.0,46.2,29.88,SSW,202,8.0,17.0,67,0.00,,---,0.54,VWS V14.01,2013-01-11 21:30:00,
2013-01-11 16:32:00,57.0,46.2,29.88,South,177,7.0,13.0,67,0.00,,---,0.54,VWS V14.01,2013-01-11 21:32:00,
2013-01-11 16:37:00,57.0,46.2,29.88,SSW,208,5.0,13.0,67,0.00,,---,0.54,VWS V14.01,2013-01-11 21:37:00,
2013-01-11 16:42:00,57.2,46.8,29.88,South,177,8.0,13.0,68,0.00,,---,0.54,VWS V14.01,2013-01-11 21:42:00,
2013-01-11 16:47:00,57.2,46.4,29.88,SSW,198,9.0,13.0,67,0.00,,---,0.54,VWS V14.01,2013-01-11 21:47:00,
2013-01-11 16:52:00,57.2,46.4,29.88,South,185,8.0,13.0,67,0.00,,---,0.54,VWS V14.01,2013-01-11 21:52:00,
2013-01-11 16:58:00,57.0,46.2,29.88,South,189,4.0,13.0,67,0.00,,---,0.54,VWS V14.01,2013-01-11 21:58:00,
2013-01-11 17:00:00,56.9,46.1,29.88,SSW,202,7.0,14.0,67,0.00,,---,0.54,VWS V14.01,2013-01-11 22:00:00,
2013-01-11 17:03:00,56.9,46.1,29.88,SSW,198,7.0,9.0,67,0.00,,---,0.54,VWS V14.01,2013-01-11 22:03:00,
2013-01-11 17:08:00,56.5,45.7,29.88,SSW,211,10.0,10.0,67,0.00,,---,0.54,VWS V14.01,2013-01-11 22:08:00,
2013-01-11 17:13:00,56.3,45.9,29.88,SSW,198,7.0,10.0,68,0.00,,---,0.54,VWS V14.01,2013-01-11 22:13:00,
2013-01-11 17:18:00,56.0,46.0,29.88,SSW,213,5.0,10.0,69,0.00,,---,0.54,VWS V14.01,2013-01-11 22:18:00,
2013-01-11 17:23:00,56.0,45.6,29.89,SW,216,9.0,10.0,68,0.00,,---,0.54,VWS V14.01,2013-01-11 22:23:00,
2013-01-11 17:28:00,55.7,45.7,29.89,SW,219,6.0,10.0,69,0.00,,---,0.54,VWS V14.01,2013-01-11 22:28:00,
2013-01-11 17:30:00,55.6,45.6,29.89,SSW,202,7.0,11.0,69,0.00,,---,0.54,VWS V14.01,2013-01-11 22:30:00,
2013-01-11 17:33:00,55.4,45.4,29.89,SW,214,8.0,8.0,69,0.00,,---,0.54,VWS V14.01,2013-01-11 22:33:00,
2013-01-11 17:38:00,55.3,45.7,29.89,SSW,197,7.0,8.0,70,0.00,,---,0.54,VWS V14.01,2013-01-11 22:38:00,
2013-01-11 17:43:00,55.3,45.7,29.89,SW,214,5.0,9.0,70,0.00,,---,0.54,VWS V14.01,2013-01-11 22:43:00,
2013-01-11 17:48:00,55.1,45.5,29.89,SSW,192,7.0,9.0,70,0.00,,---,0.54,VWS V14.01,2013-01-11 22:48:00,
2013-01-11 17:53:00,55.1,45.5,29.89,South,173,4.0,10.0,70,0.00,,---,0.54,VWS V14.01,2013-01-11 22:53:00,
2013-01-11 17:58:00,55.0,45.4,29.89,South,184,3.0,10.0,70,0.00,,---,0.54,VWS V14.01,2013-01-11 22:58:00,
2013-01-11 18:00:00,55.0,45.4,29.89,SSW,202,6.0,10.0,70,0.00,,---,0.54,VWS V14.01,2013-01-11 23:00:00,
2013-01-11 18:03:00,55.1,45.5,29.89,South,172,2.0,8.0,70,0.00,,---,0.54,VWS V14.01,2013-01-11 23:03:00,
2013-01-11 18:08:00,55.0,45.8,29.89,South,182,2.0,8.0,71,0.00,,---,0.54,VWS V14.01,2013-01-11 23:08:00,
2013-01-11 18:13:00,55.3,45.7,29.89,South,171,2.0,8.0,70,0.00,,---,0.54,VWS V14.01,2013-01-11 23:13:00,
2013-01-11 18:18:00,55.3,45.7,29.89,South,180,3.0,8.0,70,0.00,,---,0.54,VWS V14.01,2013-01-11 23:18:00,
2013-01-11 18:23:00,55.3,45.7,29.89,South,175,4.0,8.0,70,0.00,,---,0.54,VWS V14.01,2013-01-11 23:23:00,
2013-01-11 18:28:00,55.1,45.9,29.89,SSE,166,6.0,8.0,71,0.00,,---,0.54,VWS V14.01,2013-01-11 23:28:00,
2013-01-11 18:30:00,55.0,45.8,29.89,South,180,3.0,8.0,71,0.00,,---,0.54,VWS V14.01,2013-01-11 23:30:00,
2013-01-11 18:33:00,54.8,45.6,29.89,SSE,161,3.0,4.0,71,0.00,,---,0.54,VWS V14.01,2013-01-11 23:33:00,
2013-01-11 18:38:00,54.5,46.0,29.89,SSE,162,3.0,7.0,73,0.00,,---,0.54,VWS V14.01,2013-01-11 23:38:00,
2013-01-11 18:43:00,54.2,45.8,29.89,SSE,162,5.0,7.0,73,0.00,,---,0.54,VWS V14.01,2013-01-11 23:43:00,
2013-01-11 18:48:00,54.1,46.0,29.89,SSE,160,4.0,8.0,74,0.00,,---,0.54,VWS V14.01,2013-01-11 23:48:00,
2013-01-11 18:53:00,53.8,45.7,29.88,SSE,159,4.0,8.0,74,0.00,,---,0.54,VWS V14.01,2013-01-11 23:53:00,
2013-01-11 18:58:00,53.6,45.9,29.88,SSE,162,1.0,8.0,75,0.00,,---,0.54,VWS V14.01,2013-01-11 23:58:00,
2013-01-11 19:00:00,53.6,45.9,29.88,SSE,158,3.0,8.0,75,0.00,,---,0.54,VWS V14.01,2013-01-12 00:00:00,
2013-01-11 19:03:00,53.6,46.2,29.89,SSE,167,2.0,4.0,76,0.00,,---,0.54,VWS V14.01,2013-01-12 00:03:00,
2013-01-11 19:08:00,53.8,46.1,29.89,SSE,163,2.0,6.0,75,0.00,,---,0.54,VWS V14.01,2013-01-12 00:08:00,
2013-01-11 19:13:00,53.9,46.2,29.89,South,171,0.0,6.0,75,0.00,,---,0.54,VWS V14.01,2013-01-12 00:13:00,
2013-01-11 19:18:00,53.8,46.4,29.90,SSE,165,1.0,6.0,76,0.00,,---,0.54,VWS V14.01,2013-01-12 00:18:00,
2013-01-11 19:23:00,53.9,46.5,29.90,SSE,166,2.0,7.0,76,0.00,,---,0.54,VWS V14.01,2013-01-12 00:23:00,
2013-01-11 19:28:00,54.1,46.4,29.90,SSE,166,1.0,8.0,75,0.00,,---,0.54,VWS V14.01,2013-01-12 00:28:00,
2013-01-11 19:30:00,54.2,46.5,29.90,SSE,158,2.0,8.0,75,0.00,,---,0.54,VWS V14.01,2013-01-12 00:30:00,
2013-01-11 19:33:00,54.1,46.4,29.90,South,173,0.0,4.0,75,0.00,,---,0.54,VWS V14.01,2013-01-12 00:33:00,
2013-01-11 19:38:00,54.1,46.4,29.90,South,178,3.0,6.0,75,0.00,,---,0.54,VWS V14.01,2013-01-12 00:38:00,
2013-01-11 19:44:00,53.8,46.1,29.89,SSE,164,2.0,6.0,75,0.00,,---,0.54,VWS V14.01,2013-01-12 00:44:00,
2013-01-11 19:49:00,53.5,46.1,29.89,SSE,160,5.0,7.0,76,0.00,,---,0.54,VWS V14.01,2013-01-12 00:49:00,
2013-01-11 19:54:00,53.6,46.2,29.89,SSE,168,0.0,8.0,76,0.00,,---,0.54,VWS V14.01,2013-01-12 00:54:00,
2013-01-11 19:59:00,53.5,46.1,29.89,SSE,159,6.0,8.0,76,0.00,,---,0.54,VWS V14.01,2013-01-12 00:59:00,
2013-01-11 20:00:00,53.3,45.9,29.89,SSE,158,3.0,8.0,76,0.00,,---,0.54,VWS V14.01,2013-01-12 01:00:00,
2013-01-11 20:04:00,53.3,45.9,29.89,SSE,167,1.0,6.0,76,0.00,,---,0.54,VWS V14.01,2013-01-12 01:04:00,
2013-01-11 20:09:00,53.2,46.2,29.89,SSE,168,2.0,6.0,77,0.00,,---,0.54,VWS V14.01,2013-01-12 01:09:00,
2013-01-11 20:14:00,53.2,46.2,29.89,SSE,165,0.0,6.0,77,0.00,,---,0.54,VWS V14.01,2013-01-12 01:14:00,
2013-01-11 20:19:00,53.1,46.4,29.90,SSE,163,2.0,6.0,78,0.00,,---,0.54,VWS V14.01,2013-01-12 01:19:00,
2013-01-11 20:24:00,52.9,46.2,29.89,South,169,2.0,6.0,78,0.00,,---,0.54,VWS V14.01,2013-01-12 01:24:00,
2013-01-11 20:29:00,52.8,46.1,29.90,South,171,1.0,6.0,78,0.00,,---,0.54,VWS V14.01,2013-01-12 01:29:00,
2013-01-11 20:30:00,52.8,46.1,29.89,SSE,158,2.0,6.0,78,0.00,,---,0.54,VWS V14.01,2013-01-12 01:30:00,
2013-01-11 20:34:00,52.8,46.1,29.90,South,172,0.0,6.0,78,0.00,,---,0.54,VWS V14.01,2013-01-12 01:34:00,
2013-01-11 20:39:00,52.6,46.0,29.89,SSE,165,0.0,6.0,78,0.00,,---,0.54,VWS V14.01,2013-01-12 01:39:00,
2013-01-11 20:44:00,52.2,45.9,29.90,South,171,0.0,6.0,79,0.00,,---,0.54,VWS V14.01,2013-01-12 01:44:00,
2013-01-11 20:49:00,52.0,46.0,29.89,South,174,2.0,6.0,80,0.00,,---,0.54,VWS V14.01,2013-01-12 01:49:00,
2013-01-11 20:54:00,52.2,45.9,29.89,SSE,163,4.0,6.0,79,0.00,,---,0.54,VWS V14.01,2013-01-12 01:54:00,
2013-01-11 20:59:00,51.7,45.4,29.89,SSE,160,5.0,6.0,79,0.00,,---,0.54,VWS V14.01,2013-01-12 01:59:00,
2013-01-11 21:00:00,51.7,45.7,29.89,SSE,158,2.0,6.0,80,0.00,,---,0.54,VWS V14.01,2013-01-12 02:00:00,
2013-01-11 21:04:00,51.9,45.9,29.89,SSE,166,1.0,4.0,80,0.00,,---,0.54,VWS V14.01,2013-01-12 02:04:00,
2013-01-11 21:09:00,51.7,45.7,29.89,SSE,164,1.0,5.0,80,0.00,,---,0.54,VWS V14.01,2013-01-12 02:09:00,
2013-01-11 21:14:00,51.6,45.6,29.89,SSE,162,3.0,6.0,80,0.00,,---,0.54,VWS V14.01,2013-01-12 02:14:00,
2013-01-11 21:19:00,51.6,45.6,29.89,SSE,166,0.0,6.0,80,0.00,,---,0.54,VWS V14.01,2013-01-12 02:19:00,
2013-01-11 21:24:00,51.6,45.6,29.89,SSW,192,2.0,6.0,80,0.00,,---,0.54,VWS V14.01,2013-01-12 02:24:00,
2013-01-11 21:29:00,51.7,45.7,29.89,South,169,1.0,6.0,80,0.00,,---,0.54,VWS V14.01,2013-01-12 02:29:00,
2013-01-11 21:30:00,51.7,45.4,29.89,SSE,158,2.0,6.0,79,0.00,,---,0.54,VWS V14.01,2013-01-12 02:30:00,
2013-01-11 21:34:00,51.7,45.4,29.89,SSE,153,2.0,6.0,79,0.00,,---,0.54,VWS V14.01,2013-01-12 02:34:00,
2013-01-11 21:39:00,51.6,45.3,29.89,SSE,166,0.0,6.0,79,0.00,,---,0.54,VWS V14.01,2013-01-12 02:39:00,
2013-01-11 21:44:00,51.6,45.3,29.89,SSE,166,0.0,6.0,79,0.00,,---,0.54,VWS V14.01,2013-01-12 02:44:00,
2013-01-11 21:49:00,51.4,45.1,29.89,SSE,159,3.0,7.0,79,0.00,,---,0.54,VWS V14.01,2013-01-12 02:49:00,
2013-01-11 21:54:00,51.4,45.1,29.89,South,174,1.0,7.0,79,0.00,,---,0.54,VWS V14.01,2013-01-12 02:54:00,
2013-01-11 22:00:00,51.3,45.0,29.89,South,170,1.0,7.0,79,0.00,,---,0.54,VWS V14.01,2013-01-12 03:00:00,
2013-01-11 22:05:00,51.1,44.8,29.89,SSE,166,1.0,5.0,79,0.00,,---,0.54,VWS V14.01,2013-01-12 03:05:00,
2013-01-11 22:10:00,51.1,44.8,29.89,South,169,1.0,7.0,79,0.00,,---,0.54,VWS V14.01,2013-01-12 03:10:00,
2013-01-11 22:14:00,51.0,44.7,29.89,South,182,9.0,9.0,79,0.00,,---,0.54,VWS V14.01,2013-01-12 03:14:00,
2013-01-11 22:20:00,50.8,44.5,29.89,South,184,5.0,9.0,79,0.00,,---,0.54,VWS V14.01,2013-01-12 03:20:00,
2013-01-11 22:25:00,50.8,44.5,29.90,SSW,197,6.0,9.0,79,0.00,,---,0.54,VWS V14.01,2013-01-12 03:25:00,
2013-01-11 22:30:00,50.8,44.5,29.90,SSE,168,4.0,9.0,79,0.00,,---,0.54,VWS V14.01,2013-01-12 03:30:00,
2013-01-11 22:35:00,51.0,44.7,29.90,South,184,8.0,8.0,79,0.00,,---,0.54,VWS V14.01,2013-01-12 03:35:00,
2013-01-11 22:40:00,51.3,44.7,29.90,South,176,3.0,8.0,78,0.00,,---,0.54,VWS V14.01,2013-01-12 03:40:00,
2013-01-11 22:45:00,51.3,44.7,29.90,SW,216,5.0,8.0,78,0.00,,---,0.54,VWS V14.01,2013-01-12 03:45:00,
2013-01-11 22:50:00,51.3,44.7,29.90,South,171,4.0,9.0,78,0.00,,---,0.54,VWS V14.01,2013-01-12 03:50:00,
2013-01-11 22:55:00,51.4,44.8,29.90,South,186,3.0,9.0,78,0.00,,---,0.54,VWS V14.01,2013-01-12 03:55:00,
2013-01-11 23:00:00,51.4,44.4,29.90,South,170,2.0,9.0,77,0.00,,---,0.54,VWS V14.01,2013-01-12 04:00:00,
2013-01-11 23:05:00,51.4,44.4,29.90,South,178,6.0,6.0,77,0.00,,---,0.54,VWS V14.01,2013-01-12 04:05:00,
2013-01-11 23:10:00,51.6,44.6,29.90,South,170,1.0,6.0,77,0.00,,---,0.54,VWS V14.01,2013-01-12 04:10:00,
2013-01-11 23:15:00,51.4,44.4,29.90,SSE,167,1.0,7.0,77,0.00,,---,0.54,VWS V14.01,2013-01-12 04:15:00,
2013-01-11 23:20:00,51.4,44.4,29.90,SSE,163,4.0,7.0,77,0.00,,---,0.54,VWS V14.01,2013-01-12 04:20:00,
2013-01-11 23:25:00,51.4,44.1,29.90,South,173,1.0,7.0,76,0.00,,---,0.54,VWS V14.01,2013-01-12 04:25:00,
2013-01-11 23:30:00,51.3,44.3,29.90,South,171,2.0,7.0,77,0.00,,---,0.54,VWS V14.01,2013-01-12 04:30:00,
2013-01-11 23:35:00,51.3,44.3,29.90,South,169,2.0,4.0,77,0.00,,---,0.54,VWS V14.01,2013-01-12 04:35:00,
2013-01-11 23:40:00,51.3,44.0,29.90,SSE,161,4.0,6.0,76,0.00,,---,0.54,VWS V14.01,2013-01-12 04:40:00,
2013-01-11 23:45:00,51.1,44.2,29.90,South,172,2.0,6.0,77,0.00,,---,0.54,VWS V14.01,2013-01-12 04:45:00,
2013-01-11 23:50:00,50.8,43.9,29.89,South,169,2.0,6.0,77,0.00,,---,0.54,VWS V14.01,2013-01-12 04:50:00,
2013-01-11 23:55:00,50.8,44.2,29.89,SSW,200,4.0,7.0,78,0.00,,---,0.54,VWS V14.01,2013-01-12 04:55:00,